Time;durP1;ratioP1;P1;durP2;ratioP2;P2;SDS_P1;SDS_P2;PMS_P1;PMS_P2;Temp;Humidity;BMP_temperature;BMP_pressure;BME280_temperature;BME280_humidity;BME280_pressure;Samples;Min_cycle;Max_cycle;Signal;HPM_P1;HPM_P2
2020/12/04 00:02:01;;;;;;;92.40;52.60;;;3.20;86.30;;;;;;4982960;28;87969;-75
2020/12/04 00:04:27;;;;;;;103.40;53.03;;;3.20;86.40;;;;;;4999293;28;87076;-75
2020/12/04 00:06:53;;;;;;;93.67;52.60;;;3.20;86.20;;;;;;4999648;28;88530;-75
2020/12/04 00:09:19;;;;;;;92.40;48.90;;;3.30;86.40;;;;;;4999124;28;90998;-75
2020/12/04 00:11:45;;;;;;;89.83;49.67;;;3.20;86.50;;;;;;4999525;28;91118;-75
2020/12/04 00:14:10;;;;;;;91.77;50.07;;;3.10;87.20;;;;;;5000869;28;88322;-75
2020/12/04 00:16:36;;;;;;;94.03;50.83;;;3.10;87.80;;;;;;4998901;28;87280;-75
2020/12/04 00:19:03;;;;;;;98.57;53.20;;;3.00;88.60;;;;;;5000888;28;90098;-75
2020/12/04 00:21:29;;;;;;;97.47;52.00;;;3.00;89.00;;;;;;4995655;28;87484;-75
2020/12/04 00:23:55;;;;;;;84.53;46.37;;;3.00;89.20;;;;;;4979499;28;87159;-75
2020/12/04 00:26:21;;;;;;;88.50;50.47;;;3.00;89.30;;;;;;4998204;28;88238;-75
2020/12/04 00:28:47;;;;;;;88.97;46.63;;;3.10;89.20;;;;;;4998663;28;90518;-75
2020/12/04 00:31:13;;;;;;;86.27;46.97;;;3.10;89.20;;;;;;5001588;28;87928;-75
2020/12/04 00:33:39;;;;;;;77.73;43.33;;;3.10;89.50;;;;;;5002154;28;87328;-75
2020/12/04 00:36:05;;;;;;;80.43;43.47;;;3.00;89.80;;;;;;5006125;28;87155;-75
2020/12/04 00:38:31;;;;;;;75.90;41.70;;;3.00;90.10;;;;;;5003301;28;89041;-75
2020/12/04 00:40:57;;;;;;;74.23;41.07;;;3.10;90.20;;;;;;4999216;28;88342;-75
2020/12/04 00:43:23;;;;;;;71.27;40.47;;;3.10;90.40;;;;;;4999362;28;86971;-75
2020/12/04 00:45:48;;;;;;;73.70;41.50;;;3.10;90.50;;;;;;4986994;28;87032;-75
2020/12/04 00:48:14;;;;;;;71.37;38.67;;;3.20;90.30;;;;;;4986301;28;90614;-75
2020/12/04 00:50:40;;;;;;;68.70;38.23;;;3.20;90.30;;;;;;4977805;28;91330;-75
2020/12/04 00:53:07;;;;;;;70.47;40.77;;;3.20;90.40;;;;;;4978521;28;87206;-75
2020/12/04 00:55:36;;;;;;;66.80;37.40;;;3.20;90.50;;;;;;4980733;28;88263;-75
2020/12/04 00:58:04;;;;;;;67.20;36.67;;;3.20;90.50;;;;;;4980006;28;88285;-75
2020/12/04 01:00:31;;;;;;;64.07;37.37;;;3.20;90.40;;;;;;4977823;28;88561;-75
2020/12/04 01:02:57;;;;;;;67.27;36.73;;;3.20;90.50;;;;;;4961949;28;87993;-75
2020/12/04 01:05:23;;;;;;;66.80;36.97;;;3.30;90.50;;;;;;4977701;28;87579;-75
2020/12/04 01:07:49;;;;;;;67.40;37.63;;;3.30;90.40;;;;;;4978718;28;88643;-75
2020/12/04 01:10:15;;;;;;;62.90;35.40;;;3.30;90.40;;;;;;4978656;28;92442;-75
2020/12/04 01:12:42;;;;;;;66.80;36.80;;;3.30;90.50;;;;;;4989759;28;88166;-75
2020/12/04 01:15:09;;;;;;;64.80;36.23;;;3.30;90.50;;;;;;4997479;28;88075;-75
2020/12/04 01:17:35;;;;;;;66.43;35.73;;;3.30;90.50;;;;;;4997054;28;88594;-75
2020/12/04 01:20:02;;;;;;;67.17;38.73;;;3.40;90.40;;;;;;5024227;28;91546;-75
2020/12/04 01:22:28;;;;;;;66.57;37.63;;;3.40;90.30;;;;;;4997187;28;87190;-75
2020/12/04 01:24:54;;;;;;;72.40;39.37;;;3.40;90.40;;;;;;4997701;28;87907;-75
2020/12/04 01:27:20;;;;;;;69.90;40.30;;;3.50;90.40;;;;;;4996423;28;90458;-76
2020/12/04 01:29:46;;;;;;;68.87;39.13;;;3.50;90.20;;;;;;4997647;28;92232;-75
2020/12/04 01:32:12;;;;;;;67.77;36.87;;;3.50;90.30;;;;;;4998339;28;87382;-75
2020/12/04 01:34:38;;;;;;;72.77;39.30;;;3.50;90.30;;;;;;4999193;28;87589;-75
2020/12/04 01:37:03;;;;;;;66.40;37.73;;;3.50;90.40;;;;;;4983998;28;88311;-75
2020/12/04 01:39:29;;;;;;;69.27;38.53;;;3.50;90.40;;;;;;4967200;28;91372;-75
2020/12/04 01:41:55;;;;;;;67.23;38.03;;;3.50;90.50;;;;;;4998249;28;87585;-75
2020/12/04 01:44:21;;;;;;;70.07;38.90;;;3.50;90.60;;;;;;4997584;28;88282;-76
2020/12/04 01:46:51;;;;;;;68.33;38.77;;;3.50;90.50;;;;;;4997071;28;91517;-75
2020/12/04 01:49:17;;;;;;;71.03;38.93;;;3.60;90.50;;;;;;4977669;28;91627;-76
2020/12/04 01:51:44;;;;;;;69.40;38.50;;;3.60;90.40;;;;;;4978736;28;87950;-75
2020/12/04 01:54:12;;;;;;;67.77;38.40;;;3.70;90.30;;;;;;4980176;28;87069;-75
2020/12/04 01:56:38;;;;;;;72.83;39.77;;;3.70;90.00;;;;;;4976610;28;88192;-75
2020/12/04 01:59:07;;;;;;;69.00;38.50;;;3.70;89.80;;;;;;4977488;28;91095;-75
2020/12/04 02:01:36;;;;;;;71.30;41.10;;;3.70;90.00;;;;;;4960251;28;87420;-75
2020/12/04 02:04:02;;;;;;;72.90;39.23;;;3.70;89.70;;;;;;4979234;28;87014;-75
2020/12/04 02:06:39;;;;;;;67.03;39.13;;;3.70;89.80;;;;;;4977964;28;88230;-75
2020/12/04 02:09:09;;;;;;;70.67;41.63;;;3.70;89.80;;;;;;4978564;28;88416;-75
2020/12/04 02:11:37;;;;;;;70.03;37.50;;;3.70;90.00;;;;;;4993689;28;87429;-75
2020/12/04 02:14:05;;;;;;;69.73;41.07;;;3.70;89.90;;;;;;4977765;28;87096;-75
2020/12/04 02:16:32;;;;;;;69.53;38.47;;;3.80;90.00;;;;;;4993272;28;88756;-75
2020/12/04 02:18:58;;;;;;;68.27;39.10;;;3.70;90.10;;;;;;4997516;28;92389;-75
2020/12/04 02:21:24;;;;;;;68.17;39.17;;;3.70;90.20;;;;;;4998294;28;86917;-75
2020/12/04 02:23:51;;;;;;;66.37;40.10;;;3.70;90.20;;;;;;4999181;28;87011;-75
2020/12/04 02:26:20;;;;;;;70.77;39.80;;;3.80;90.10;;;;;;4996596;28;91757;-75
2020/12/04 02:28:47;;;;;;;71.80;39.47;;;3.80;89.80;;;;;;4997108;28;91577;-75
2020/12/04 02:31:13;;;;;;;72.00;39.43;;;3.80;89.70;;;;;;4997471;28;87892;-75
2020/12/04 02:33:40;;;;;;;69.07;39.67;;;3.80;89.60;;;;;;4998171;28;86812;-75
2020/12/04 02:36:07;;;;;;;66.00;37.37;;;3.80;90.00;;;;;;4996672;28;91012;-75
2020/12/04 02:38:33;;;;;;;64.13;36.70;;;3.80;90.00;;;;;;4984257;28;88630;-75
2020/12/04 02:40:59;;;;;;;61.23;36.27;;;3.80;90.20;;;;;;4996270;28;87799;-75
2020/12/04 02:43:28;;;;;;;65.33;36.70;;;3.80;90.00;;;;;;4996477;28;88691;-75
2020/12/04 02:45:55;;;;;;;61.20;35.03;;;3.80;90.10;;;;;;4997876;28;89763;-74
2020/12/04 02:48:21;;;;;;;61.10;35.60;;;3.80;90.00;;;;;;4998212;28;89073;-77
2020/12/04 02:50:47;;;;;;;61.17;34.30;;;3.90;90.00;;;;;;4997047;28;87325;-74
2020/12/04 02:53:12;;;;;;;58.73;34.53;;;3.90;90.00;;;;;;5001765;28;87380;-74
2020/12/04 02:55:38;;;;;;;61.37;34.60;;;3.90;90.00;;;;;;5016250;28;88616;-75
2020/12/04 02:58:04;;;;;;;58.47;33.80;;;3.80;90.10;;;;;;4984018;28;91559;-74
2020/12/04 03:00:31;;;;;;;55.47;34.47;;;3.90;90.00;;;;;;5014064;28;87501;-75
2020/12/04 03:02:57;;;;;;;52.70;32.90;;;3.90;90.00;;;;;;5017257;28;87221;-75
2020/12/04 03:05:23;;;;;;;58.97;34.63;;;3.90;89.90;;;;;;5000014;28;89232;-74
2020/12/04 03:07:49;;;;;;;56.03;32.67;;;3.90;90.00;;;;;;4999727;28;90915;-74
2020/12/04 03:10:15;;;;;;;58.17;33.87;;;3.90;89.90;;;;;;4995290;28;87374;-74
2020/12/04 03:12:41;;;;;;;59.97;35.20;;;3.90;89.80;;;;;;4980171;28;87213;-75
2020/12/04 03:15:08;;;;;;;55.33;33.03;;;3.90;89.70;;;;;;4979508;28;88720;-75
2020/12/04 03:17:34;;;;;;;54.60;32.67;;;3.80;90.00;;;;;;4979327;28;89870;-74
2020/12/04 03:20:01;;;;;;;52.70;31.53;;;3.80;90.10;;;;;;4983654;28;86878;-75
2020/12/04 03:22:27;;;;;;;50.37;29.97;;;3.80;90.10;;;;;;4979949;28;88018;-75
2020/12/04 03:24:54;;;;;;;51.20;31.80;;;3.80;90.30;;;;;;4980440;28;89557;-75
2020/12/04 03:27:20;;;;;;;54.63;31.17;;;3.70;90.30;;;;;;4979735;28;86890;-76
2020/12/04 03:29:49;;;;;;;47.17;28.10;;;3.80;90.50;;;;;;4986075;28;88183;-75
2020/12/04 03:32:15;;;;;;;51.87;30.53;;;3.70;90.60;;;;;;4983357;28;87200;-75
2020/12/04 03:34:42;;;;;;;46.47;28.17;;;3.70;90.60;;;;;;4999062;28;90658;-75
2020/12/04 03:37:08;;;;;;;43.13;28.63;;;3.60;90.60;;;;;;4999695;28;88007;-75
2020/12/04 03:39:35;;;;;;;42.23;26.77;;;3.60;90.90;;;;;;4999059;28;87414;-75
2020/12/04 03:42:02;;;;;;;41.03;26.40;;;3.60;90.90;;;;;;4999442;28;87487;-75
2020/12/04 03:44:28;;;;;;;43.03;27.00;;;3.60;90.90;;;;;;5000734;28;88164;-75
2020/12/04 03:46:54;;;;;;;43.47;27.27;;;3.70;90.80;;;;;;5000100;28;88231;-75
2020/12/04 03:49:19;;;;;;;41.40;27.13;;;3.70;90.70;;;;;;4999959;28;88556;-75
2020/12/04 03:51:46;;;;;;;42.70;27.23;;;3.70;90.70;;;;;;5000903;28;87022;-75
2020/12/04 03:54:12;;;;;;;39.87;27.00;;;3.70;90.60;;;;;;5002590;28;89613;-75
2020/12/04 03:56:38;;;;;;;42.13;27.23;;;3.80;90.30;;;;;;5005160;28;88416;-75
2020/12/04 03:59:04;;;;;;;42.73;26.17;;;3.80;90.20;;;;;;5001906;28;87000;-75
2020/12/04 04:01:34;;;;;;;40.13;25.30;;;3.80;90.30;;;;;;4998470;28;87064;-75
2020/12/04 04:04:00;;;;;;;43.27;26.00;;;3.80;90.30;;;;;;4991724;28;87720;-75
2020/12/04 04:06:26;;;;;;;37.90;26.63;;;3.80;90.40;;;;;;4978196;28;90849;-75
2020/12/04 04:08:52;;;;;;;39.43;25.23;;;3.80;90.40;;;;;;4989501;28;86866;-74
2020/12/04 04:11:19;;;;;;;42.63;24.63;;;3.80;90.40;;;;;;4999623;28;86337;-75
2020/12/04 04:13:44;;;;;;;42.03;27.00;;;3.90;90.40;;;;;;4979047;28;88359;-75
2020/12/04 04:16:11;;;;;;;42.80;26.07;;;3.90;90.30;;;;;;4992913;28;91745;-75
2020/12/04 04:18:37;;;;;;;40.13;25.87;;;3.90;90.30;;;;;;4998410;28;88376;-75
2020/12/04 04:21:10;;;;;;;45.77;25.57;;;3.90;90.20;;;;;;4999100;28;88290;-75
2020/12/04 04:23:36;;;;;;;43.00;27.13;;;4.00;90.00;;;;;;4998297;28;91447;-75
2020/12/04 04:26:02;;;;;;;39.17;24.53;;;4.00;89.80;;;;;;4998927;28;87129;-74
2020/12/04 04:28:29;;;;;;;39.07;24.73;;;4.00;89.60;;;;;;4998403;28;86904;-75
2020/12/04 04:30:55;;;;;;;40.67;25.13;;;4.10;89.40;;;;;;5000588;28;87077;-75
2020/12/04 04:33:22;;;;;;;42.50;25.80;;;4.20;89.20;;;;;;5000478;28;88323;-76
2020/12/04 04:35:48;;;;;;;42.17;25.20;;;4.20;88.20;;;;;;4998518;28;91693;-75
2020/12/04 04:38:14;;;;;;;44.90;27.17;;;4.30;87.90;;;;;;5000261;28;86948;-75
2020/12/04 04:40:40;;;;;;;43.90;26.73;;;4.30;88.10;;;;;;4997996;28;87517;-75
2020/12/04 04:43:15;;;;;;;41.53;24.23;;;4.30;88.00;;;;;;4998239;28;92442;-75
2020/12/04 04:45:42;;;;;;;43.67;25.67;;;4.30;88.00;;;;;;4997419;28;93025;-75
2020/12/04 04:48:25;;;;;;;41.70;26.40;;;4.30;87.80;;;;;;4998705;28;86937;-75
2020/12/04 04:50:59;;;;;;;46.87;26.40;;;4.40;87.60;;;;;;4998936;28;88515;-74
2020/12/04 04:53:25;;;;;;;53.30;28.67;;;4.30;87.80;;;;;;4984130;28;88464;-75
2020/12/04 04:55:51;;;;;;;49.83;28.07;;;4.30;87.50;;;;;;4953772;28;92115;-75
2020/12/04 04:58:18;;;;;;;49.90;28.23;;;4.40;87.30;;;;;;4985456;28;87156;-75
2020/12/04 05:00:44;;;;;;;48.83;30.77;;;4.40;87.20;;;;;;4981216;28;86961;-75
2020/12/04 05:03:10;;;;;;;50.60;31.20;;;4.40;87.20;;;;;;5015137;28;87954;-75
2020/12/04 05:05:47;;;;;;;55.63;31.97;;;4.40;87.30;;;;;;4996428;28;89607;-75
2020/12/04 05:08:18;;;;;;;54.73;32.97;;;4.30;87.20;;;;;;4995443;28;88079;-75
2020/12/04 05:10:44;;;;;;;57.40;34.07;;;4.30;87.10;;;;;;4977345;28;87955;-74
2020/12/04 05:13:11;;;;;;;59.37;35.50;;;4.30;87.20;;;;;;4979694;28;87675;-75
2020/12/04 05:15:39;;;;;;;63.43;35.13;;;4.30;87.30;;;;;;4977782;28;87971;-75
2020/12/04 05:18:10;;;;;;;60.63;36.23;;;4.30;87.50;;;;;;4978528;28;86983;-75
2020/12/04 05:20:41;;;;;;;59.90;35.25;;;4.20;87.40;;;;;;4977773;28;87436;-75
2020/12/04 05:23:08;;;;;;;65.93;37.50;;;4.20;87.60;;;;;;4996564;28;88632;-75
2020/12/04 05:25:47;;;;;;;64.97;37.80;;;4.20;87.70;;;;;;4998844;28;88428;-75
2020/12/04 05:28:16;;;;;;;72.47;39.03;;;4.30;87.50;;;;;;4998178;28;87280;-75
2020/12/04 05:30:44;;;;;;;66.83;37.27;;;4.30;87.20;;;;;;4997321;28;88152;-75
2020/12/04 05:33:11;;;;;;;66.77;36.83;;;4.30;87.00;;;;;;4997406;28;91255;-75
2020/12/04 05:35:38;;;;;;;69.30;38.53;;;4.40;86.80;;;;;;4998356;28;88596;-75
2020/12/04 05:38:12;;;;;;;68.00;37.67;;;4.40;86.70;;;;;;4997932;28;87189;-75
2020/12/04 05:40:43;;;;;;;64.70;37.47;;;4.40;87.00;;;;;;4980814;28;87196;-75
2020/12/04 05:43:09;;;;;;;65.50;38.87;;;4.40;86.80;;;;;;4998356;28;88792;-75
2020/12/04 05:45:35;;;;;;;67.43;39.23;;;4.40;86.50;;;;;;4996934;28;88069;-75
2020/12/04 05:48:01;;;;;;;64.57;40.73;;;4.40;86.40;;;;;;4998132;28;87575;-75
2020/12/04 05:50:27;;;;;;;67.40;38.93;;;4.40;86.30;;;;;;4999293;28;86363;-76
2020/12/04 05:52:53;;;;;;;69.07;39.50;;;4.50;86.10;;;;;;4997992;28;91700;-75
2020/12/04 05:55:19;;;;;;;81.07;40.57;;;4.40;86.40;;;;;;4997333;28;89606;-75
2020/12/04 05:57:45;;;;;;;71.00;41.83;;;4.50;86.30;;;;;;4997353;28;87947;-75
2020/12/04 06:00:12;;;;;;;78.67;39.40;;;4.50;86.20;;;;;;4995403;28;87073;-75
2020/12/04 06:02:39;;;;;;;67.70;38.63;;;4.50;86.30;;;;;;4977441;28;88584;-75
2020/12/04 06:05:06;;;;;;;67.37;38.80;;;4.50;86.40;;;;;;4977721;28;91518;-75
2020/12/04 06:07:32;;;;;;;71.53;40.97;;;4.50;86.30;;;;;;4978399;28;87217;-75
2020/12/04 06:09:59;;;;;;;70.10;41.87;;;4.50;86.10;;;;;;4977695;28;87833;-75
2020/12/04 06:12:25;;;;;;;66.27;39.90;;;4.50;86.50;;;;;;4988493;28;88092;-75
2020/12/04 06:14:51;;;;;;;75.20;44.03;;;4.50;86.20;;;;;;4993923;28;92221;-75
2020/12/04 06:17:17;;;;;;;74.97;42.23;;;4.60;86.10;;;;;;4977531;28;87529;-75
2020/12/04 06:19:45;;;;;;;81.70;42.33;;;4.60;85.90;;;;;;4977322;28;87173;-75
2020/12/04 06:22:19;;;;;;;70.57;39.70;;;4.60;85.20;;;;;;4977241;28;92260;-75
2020/12/04 06:24:58;;;;;;;75.90;41.83;;;4.70;85.30;;;;;;4978519;28;88566;-75
2020/12/04 06:27:44;;;;;;;76.23;43.30;;;4.70;85.30;;;;;;4992945;28;87211;-76
2020/12/04 06:30:14;;;;;;;74.50;40.57;;;4.80;85.10;;;;;;5002423;28;86984;-75
2020/12/04 06:32:45;;;;;;;75.87;42.73;;;4.80;84.70;;;;;;5001345;28;87896;-75
2020/12/04 06:35:13;;;;;;;74.03;41.30;;;4.90;84.40;;;;;;5000976;28;91418;-75
2020/12/04 06:37:45;;;;;;;70.53;41.30;;;4.90;84.60;;;;;;5000075;28;87306;-75
2020/12/04 06:40:26;;;;;;;77.20;42.47;;;4.80;84.90;;;;;;5001346;28;88066;-75
2020/12/04 06:43:00;;;;;;;67.00;38.87;;;4.90;84.50;;;;;;4984302;28;91219;-75
2020/12/04 06:45:48;;;;;;;62.80;38.43;;;4.90;84.60;;;;;;4999534;28;91766;-76
2020/12/04 06:48:17;;;;;;;73.53;41.80;;;4.90;84.40;;;;;;5001917;28;87888;-75
2020/12/04 06:50:48;;;;;;;68.80;39.93;;;4.90;84.60;;;;;;4994378;28;87070;-75
2020/12/04 06:53:15;;;;;;;70.30;40.63;;;4.90;84.30;;;;;;4980921;28;89849;-75
2020/12/04 06:55:43;;;;;;;66.93;39.00;;;4.90;84.80;;;;;;4981093;28;88384;-76
2020/12/04 06:58:10;;;;;;;70.67;41.23;;;4.90;85.10;;;;;;4980829;28;87467;-75
2020/12/04 07:00:36;;;;;;;66.90;40.03;;;4.90;85.00;;;;;;4980342;28;87131;-75
2020/12/04 07:03:04;;;;;;;72.23;40.67;;;4.90;85.20;;;;;;4987668;28;91460;-75
2020/12/04 07:05:32;;;;;;;70.33;40.60;;;4.90;85.30;;;;;;5008380;28;87660;-75
2020/12/04 07:08:07;;;;;;;68.17;40.60;;;4.90;85.10;;;;;;4984581;28;87358;-75
2020/12/04 07:10:34;;;;;;;74.53;42.63;;;4.90;85.00;;;;;;5004002;28;87056;-75
2020/12/04 07:13:01;;;;;;;67.43;39.93;;;4.90;85.30;;;;;;4968050;28;92290;-75
2020/12/04 07:15:31;;;;;;;76.50;43.00;;;4.90;85.00;;;;;;4987500;28;92019;-76
2020/12/04 07:17:58;;;;;;;77.43;43.60;;;4.90;85.10;;;;;;5015109;28;87396;-76
2020/12/04 07:20:34;;;;;;;76.70;45.90;;;4.80;85.50;;;;;;5009718;28;87866;-76
2020/12/04 07:23:04;;;;;;;78.83;42.47;;;4.70;86.10;;;;;;4985480;28;91471;-75
2020/12/04 07:25:30;;;;;;;80.83;45.63;;;4.70;86.40;;;;;;4993252;28;91534;-75
2020/12/04 07:27:58;;;;;;;85.03;47.13;;;4.60;87.10;;;;;;5006211;28;87060;-75
2020/12/04 07:30:25;;;;;;;79.87;44.93;;;4.60;87.20;;;;;;5005523;28;86696;-76
2020/12/04 07:32:54;;;;;;;75.87;45.23;;;4.60;87.00;;;;;;5008994;28;88663;-75
2020/12/04 07:35:22;;;;;;;77.67;45.37;;;4.60;87.10;;;;;;5005085;28;90204;-75
2020/12/04 07:37:48;;;;;;;76.57;44.83;;;4.70;86.70;;;;;;5005109;28;87900;-75
2020/12/04 07:40:16;;;;;;;77.63;41.93;;;4.80;86.10;;;;;;5007512;28;88297;-75
2020/12/04 07:42:42;;;;;;;79.17;43.27;;;4.80;85.60;;;;;;4989609;28;90759;-75
2020/12/04 07:45:16;;;;;;;78.23;43.10;;;4.90;85.30;;;;;;5006886;28;91806;-76
2020/12/04 07:47:43;;;;;;;81.20;49.47;;;5.00;85.50;;;;;;4997221;28;87115;-75
2020/12/04 07:50:11;;;;;;;77.10;43.40;;;5.10;84.30;;;;;;4990021;28;87081;-75
2020/12/04 07:52:49;;;;;;;73.97;44.07;;;5.10;84.10;;;;;;5006596;28;88485;-75
2020/12/04 07:55:17;;;;;;;82.63;46.73;;;5.10;83.80;;;;;;5007301;28;91248;-76
2020/12/04 07:58:05;;;;;;;75.60;46.13;;;5.20;83.70;;;;;;5003265;28;87208;-75
2020/12/04 08:00:32;;;;;;;75.43;42.47;;;5.30;83.50;;;;;;5002671;28;87543;-77
2020/12/04 08:03:10;;;;;;;70.17;42.37;;;5.30;83.80;;;;;;4989469;28;92843;-75
2020/12/04 08:05:38;;;;;;;71.50;42.40;;;5.50;82.80;;;;;;4989557;28;92581;-76
2020/12/04 08:08:04;;;;;;;65.83;41.93;;;5.60;82.50;;;;;;4974711;28;87137;-75
2020/12/04 08:10:30;;;;;;;62.07;40.17;;;5.90;81.60;;;;;;4991466;28;87057;-75
2020/12/04 08:12:57;;;;;;;65.33;37.40;;;6.30;79.30;;;;;;4993373;28;91928;-75
2020/12/04 08:15:23;;;;;;;63.20;37.07;;;6.40;78.60;;;;;;4990333;28;88199;-76
2020/12/04 08:18:04;;;;;;;55.53;32.50;;;6.70;78.20;;;;;;5007740;28;87611;-75
2020/12/04 08:20:30;;;;;;;49.40;31.67;;;6.80;76.80;;;;;;5004139;28;86996;-73
2020/12/04 08:22:56;;;;;;;50.33;29.93;;;7.00;76.10;;;;;;4988745;28;88782;-73
2020/12/04 08:25:27;;;;;;;51.93;32.13;;;7.20;75.50;;;;;;4994123;28;87513;-74
2020/12/04 08:27:54;;;;;;;53.25;33.20;;;7.20;74.30;;;;;;4980077;28;88037;-73
2020/12/04 08:30:27;;;;;;;51.80;32.83;;;7.30;74.20;;;;;;4990168;28;87137;-73
2020/12/04 08:32:53;;;;;;;49.23;30.13;;;7.20;74.60;;;;;;4987413;28;92093;-73
2020/12/04 08:35:30;;;;;;;47.73;27.50;;;7.10;75.50;;;;;;4993079;28;91530;-73
2020/12/04 08:38:14;;;;;;;41.83;27.13;;;6.80;76.60;;;;;;4995472;28;87294;-73
2020/12/04 08:40:47;;;;;;;44.13;27.27;;;6.70;77.70;;;;;;4989848;28;87375;-73
2020/12/04 08:43:15;;;;;;;45.47;28.33;;;6.60;78.50;;;;;;4989320;28;91402;-75
2020/12/04 08:45:52;;;;;;;39.93;25.73;;;6.70;78.20;;;;;;5004610;28;91203;-81
2020/12/04 08:48:21;;;;;;;41.40;26.43;;;6.70;77.90;;;;;;4988069;28;87652;-77
2020/12/04 08:50:54;;;;;;;40.17;25.27;;;6.70;78.40;;;;;;4975681;28;88502;-80
2020/12/04 08:53:23;;;;;;;41.70;26.20;;;6.70;79.20;;;;;;4992113;28;89672;-78
2020/12/04 08:55:53;;;;;;;41.60;25.50;;;6.70;78.70;;;;;;4988826;28;91809;-78
2020/12/04 08:58:21;;;;;;;37.87;23.40;;;6.70;78.70;;;;;;5006824;28;87540;-76
2020/12/04 09:00:49;;;;;;;43.23;27.57;;;6.80;78.60;;;;;;5006737;28;87092;-76
2020/12/04 09:03:16;;;;;;;35.67;24.50;;;7.10;77.30;;;;;;5005794;28;87688;-76
2020/12/04 09:05:42;;;;;;;41.50;24.80;;;7.10;76.20;;;;;;5008226;28;87146;-76
2020/12/04 09:08:08;;;;;;;40.53;25.27;;;7.20;76.00;;;;;;5002778;28;87202;-76
2020/12/04 09:10:35;;;;;;;43.20;24.30;;;7.10;75.90;;;;;;4984197;28;86300;-78
2020/12/04 09:13:02;;;;;;;39.43;24.50;;;7.00;76.50;;;;;;5001810;28;90511;-79
2020/12/04 09:15:29;;;;;;;36.77;23.30;;;6.90;77.50;;;;;;4993872;28;88040;-77
2020/12/04 09:17:55;;;;;;;31.63;22.27;;;6.80;77.90;;;;;;5008447;28;88346;-78
2020/12/04 09:20:23;;;;;;;33.73;23.03;;;6.80;78.30;;;;;;5000081;28;87165;-77
2020/12/04 09:22:49;;;;;;;33.53;23.10;;;6.80;78.70;;;;;;4984611;28;88745;-76
2020/12/04 09:25:15;;;;;;;32.40;23.07;;;6.80;78.70;;;;;;4992903;28;89350;-75
2020/12/04 09:27:42;;;;;;;32.30;21.70;;;7.10;77.60;;;;;;4978698;28;87514;-75
2020/12/04 09:30:11;;;;;;;30.07;19.13;;;7.20;77.00;;;;;;4994455;28;87124;-76
2020/12/04 09:32:38;;;;;;;28.10;19.43;;;7.30;76.30;;;;;;4978851;28;91401;-74
2020/12/04 09:35:05;;;;;;;26.90;18.53;;;7.40;75.40;;;;;;5001601;28;86736;-74
2020/12/04 09:37:33;;;;;;;28.67;18.57;;;7.30;76.00;;;;;;4981774;28;87635;-72
2020/12/04 09:40:07;;;;;;;30.20;19.45;;;7.60;75.30;;;;;;5003272;28;87411;-72
2020/12/04 09:42:34;;;;;;;26.60;18.40;;;8.00;73.50;;;;;;4997117;28;89593;-74
2020/12/04 09:45:00;;;;;;;25.38;17.15;;;8.30;72.30;;;;;;4985979;28;88561;-73
2020/12/04 09:47:30;;;;;;;26.77;17.95;;;8.40;71.10;;;;;;4981303;28;88363;-74
2020/12/04 09:49:56;;;;;;;30.08;21.05;;;8.50;70.50;;;;;;4996698;28;87624;-73
2020/12/04 09:52:23;;;;;;;28.83;20.43;;;8.30;71.20;;;;;;4987177;28;89983;-74
2020/12/04 09:54:49;;;;;;;34.50;21.17;;;8.10;71.90;;;;;;4992965;28;92323;-74
2020/12/04 09:57:16;;;;;;;30.03;20.10;;;8.00;72.60;;;;;;4971519;28;88279;-73
2020/12/04 09:59:43;;;;;;;29.60;19.00;;;7.90;72.90;;;;;;4987694;28;87596;-74
2020/12/04 10:02:09;;;;;;;29.48;18.73;;;8.00;73.00;;;;;;4958157;28;91323;-73
2020/12/04 10:04:37;;;;;;;28.53;18.57;;;8.20;71.80;;;;;;4988031;28;90913;-73
2020/12/04 10:07:03;;;;;;;29.90;18.90;;;8.10;71.90;;;;;;4994262;28;87955;-73
2020/12/04 10:09:29;;;;;;;25.48;17.65;;;8.30;71.80;;;;;;4991348;28;88341;-74
2020/12/04 10:11:55;;;;;;;29.45;18.42;;;8.40;71.10;;;;;;4996327;28;87838;-73
2020/12/04 10:14:22;;;;;;;32.17;19.07;;;8.50;70.40;;;;;;4989154;28;91094;-73
2020/12/04 10:16:49;;;;;;;27.90;18.90;;;8.60;70.70;;;;;;4991320;28;87738;-73
2020/12/04 10:19:17;;;;;;;30.23;19.05;;;8.70;69.70;;;;;;4985037;28;87285;-73
2020/12/04 10:21:45;;;;;;;29.50;18.67;;;8.80;69.20;;;;;;4952890;28;90190;-73
2020/12/04 10:24:12;;;;;;;27.92;18.70;;;8.80;69.10;;;;;;4991358;28;88595;-74
2020/12/04 10:26:47;;;;;;;28.77;18.75;;;8.80;69.30;;;;;;4995204;28;87415;-73
2020/12/04 10:29:14;;;;;;;26.55;18.33;;;8.90;68.70;;;;;;4995777;28;88037;-73
2020/12/04 10:31:40;;;;;;;31.30;19.33;;;9.00;68.70;;;;;;5017065;28;91290;-73
2020/12/04 10:34:06;;;;;;;29.37;18.93;;;9.00;68.30;;;;;;5003295;28;92508;-73
2020/12/04 10:36:36;;;;;;;25.17;17.13;;;9.00;68.60;;;;;;5000960;28;87104;-73
2020/12/04 10:39:04;;;;;;;23.67;16.52;;;9.00;68.00;;;;;;4981657;28;87564;-73
2020/12/04 10:41:31;;;;;;;24.77;16.53;;;8.90;68.70;;;;;;5008418;28;90202;-74
2020/12/04 10:43:59;;;;;;;23.35;16.33;;;9.00;68.30;;;;;;4996562;28;87450;-73
2020/12/04 10:46:25;;;;;;;23.25;16.40;;;9.00;68.60;;;;;;4991232;28;87233;-74
2020/12/04 10:48:51;;;;;;;24.17;16.58;;;8.90;68.60;;;;;;4997351;28;88494;-74
2020/12/04 10:51:24;;;;;;;22.20;16.25;;;8.90;69.00;;;;;;4994810;28;91682;-74
2020/12/04 10:53:52;;;;;;;22.48;15.80;;;8.90;68.50;;;;;;4993675;28;87916;-75
2020/12/04 10:56:20;;;;;;;25.80;18.42;;;8.80;69.20;;;;;;5009091;28;88440;-75
2020/12/04 10:58:46;;;;;;;24.08;16.85;;;8.90;69.40;;;;;;4993862;28;88408;-78
2020/12/04 11:01:14;;;;;;;22.52;16.45;;;8.80;69.50;;;;;;4977755;28;91529;-75
2020/12/04 11:06:06;;;;;;;24.85;16.23;;;8.60;70.40;;;;;;4989098;28;87324;-74
2020/12/04 11:08:32;;;;;;;21.92;14.70;;;8.70;70.10;;;;;;4995179;28;87103;-71
2020/12/04 11:10:58;;;;;;;23.83;16.33;;;8.80;70.30;;;;;;4995488;28;91044;-71
2020/12/04 11:13:24;;;;;;;25.67;17.20;;;8.80;70.70;;;;;;4977720;28;92188;-71
2020/12/04 11:15:50;;;;;;;23.38;16.90;;;8.80;70.30;;;;;;4996089;28;87436;-71
2020/12/04 11:18:16;;;;;;;22.40;14.68;;;8.90;70.20;;;;;;4998560;28;87718;-71
2020/12/04 11:20:42;;;;;;;26.27;15.32;;;9.00;70.50;;;;;;4996648;28;92084;-71
2020/12/04 11:23:09;;;;;;;23.42;15.80;;;9.00;69.80;;;;;;4999953;28;88138;-71
2020/12/04 11:25:34;;;;;;;22.75;15.48;;;8.90;69.90;;;;;;4985776;28;87614;-71
2020/12/04 11:28:00;;;;;;;21.17;14.68;;;8.90;70.30;;;;;;4994081;28;88383;-71
2020/12/04 11:30:26;;;;;;;22.88;14.85;;;8.90;70.70;;;;;;5016280;28;87891;-72
2020/12/04 11:32:52;;;;;;;21.20;15.77;;;8.80;70.50;;;;;;4997075;28;91220;-72
2020/12/04 11:35:19;;;;;;;21.00;15.25;;;8.90;71.80;;;;;;4981094;28;87455;-71
2020/12/04 11:37:49;;;;;;;25.13;16.30;;;8.90;70.90;;;;;;4997923;28;88167;-71
2020/12/04 11:40:17;;;;;;;26.60;16.05;;;8.90;70.90;;;;;;4999558;28;88097;-74
2020/12/04 11:42:45;;;;;;;24.52;16.88;;;8.80;71.30;;;;;;5003989;28;88699;-74
2020/12/04 11:45:14;;;;;;;20.50;14.30;;;8.80;72.00;;;;;;4971348;28;88535;-74
2020/12/04 11:47:40;;;;;;;27.20;18.42;;;8.70;71.80;;;;;;5006247;28;87138;-74
2020/12/04 11:50:15;;;;;;;20.60;14.63;;;8.70;72.30;;;;;;5006363;28;87673;-74
2020/12/04 11:52:41;;;;;;;21.77;15.27;;;8.70;72.70;;;;;;4996833;28;89618;-74
2020/12/04 11:55:09;;;;;;;29.30;17.40;;;8.80;72.50;;;;;;5003681;28;87589;-73
2020/12/04 11:57:36;;;;;;;22.50;15.32;;;8.70;72.40;;;;;;5001836;28;88606;-74
2020/12/04 12:00:03;;;;;;;24.00;15.90;;;8.70;73.20;;;;;;5004070;28;87866;-74
2020/12/04 12:02:40;;;;;;;24.83;18.07;;;8.70;72.90;;;;;;5004449;28;87097;-74
2020/12/04 12:05:06;;;;;;;23.07;15.50;;;8.70;73.50;;;;;;5002557;28;87494;-74
2020/12/04 12:07:33;;;;;;;23.77;16.35;;;8.70;73.50;;;;;;4989845;28;87675;-71
2020/12/04 12:09:59;;;;;;;23.92;15.93;;;8.70;73.50;;;;;;5001133;28;89501;-74
2020/12/04 12:12:25;;;;;;;21.90;15.43;;;8.60;73.20;;;;;;5000607;28;88308;-72
2020/12/04 12:14:51;;;;;;;21.70;14.50;;;8.60;72.80;;;;;;5004666;28;87449;-73
2020/12/04 12:17:17;;;;;;;21.30;14.73;;;8.60;72.40;;;;;;4988930;28;87604;-74
2020/12/04 12:19:43;;;;;;;19.87;14.87;;;8.50;72.10;;;;;;4994443;28;87630;-71
2020/12/04 12:22:11;;;;;;;20.27;13.87;;;8.40;72.00;;;;;;5008806;28;87360;-73
2020/12/04 12:24:38;;;;;;;19.97;13.97;;;8.40;71.60;;;;;;5004747;28;87734;-73
2020/12/04 12:27:05;;;;;;;21.53;13.37;;;8.30;72.00;;;;;;5026613;28;86934;-72
2020/12/04 12:29:31;;;;;;;20.10;14.50;;;8.20;73.90;;;;;;5009066;28;91137;-73
2020/12/04 12:31:57;;;;;;;22.13;14.40;;;8.20;73.20;;;;;;5006608;28;90617;-71
2020/12/04 12:34:59;;;;;;;21.13;15.30;;;8.20;73.40;;;;;;4999541;28;88915;-74
2020/12/04 12:37:10;;;;;;;26.67;19.07;;;8.20;74.10;;;;;;5004801;28;87896;-73
2020/12/04 12:39:36;;;;;;;21.87;15.67;;;8.10;74.50;;;;;;4991500;28;87642;-74
2020/12/04 12:42:05;;;;;;;24.77;15.80;;;8.10;74.30;;;;;;4988601;28;87821;-74